Terminal Aerodrome Forecast
Issued by NWS Charleston, WV

Current Version | Previous Version | Graphics & Text | Print | Product List | Glossary On
Versions: 1 2 3 4 5 6 7 8 9 10 11 12 13 14 15 16 17 18 19 20 21 22 23 24
000
FTUS41 KRLX 171100
TAFPKB
TAF
KPKB 171124Z 1712/1812 00000KT P6SM BKN040
     FM171400 VRB04KT P6SM BKN035
     FM171600 VRB04KT P6SM VCTS BKN035CB
     FM180300 00000KT P6SM BKN045=

USA.gov is the U.S. government's official web portal to all federal, state and local government web resources and services.